Holly Hill, SC (29059)

6:38 PM EDT on September 01, 2015 (GMT -0400)
Rosinville | | Change Station
CLOSE
Current Station
Personal Weather Station
Location: Saint George, SC
Elevation: 98 ft
Nearby Weather Stations

Elev 98 ft 33.24 °N, 80.54 °W | Updated 7 seconds ago

Partly Cloudy
Partly Cloudy
86.5 °F
Feels Like 93 °F
N
4.0
Wind Variable Wind from South
Gusts 4.0 mph

Today
High -- | Low -- °F
--% Chance of Precip.
Yesterday
High -- | Low -- °F
Precip. -- in
6:55 AM 7:47 PM
Waning Gibbous, 86% visible
Pressure 30.06 in
Visibility 10.0 miles
Clouds Clear
Heat Index 93 °F
Dew Point 72 °F
Humidity 62%
Rainfall 0.00 in
Snow Depth Not available.
UV 1 out of 12
Pollen 7.30 out of 12
Air Quality Not available.
Flu Activity Not available.
METAR KDYB 012235Z AUTO 18003KT 10SM CLR 28/23 A3006 RMK AO1 LTG DSNT S
Pressure 30.06 in
Visibility 10.0 miles
Clouds Clear
Heat Index 93 °F
Dew Point 72 °F
Humidity 62%
Rainfall 0.00 in
Snow Depth Not available.
UV 1 out of 12
Pollen 7.30 out of 12
Air Quality Not available.
Flu Activity Not available.
METAR KDYB 012235Z AUTO 18003KT 10SM CLR 28/23 A3006 RMK AO1 LTG DSNT S

10-Day Weather Forecast

×

Almanac

Astronomy

Sep. 01, 2015 Rise Set
Actual Time
Civil Twilight
Nautical Twilight
Astronomical Twilight
Moon
Length of Visible Light
Length of Day
Tomorrow will be .
, % of the Moon is Illuminated

Today's Extremes

State Highs State Lows

Community

WunderPhotos

Upload Photos

1,851,634 photos uploaded!

WunderBlogs® & News

Nearby

Air Quality

  Air Quality AQ Index Pollutant
Not available.

Snow Depth

Station Depth Elevation

Earthquake Activity

City Distance Mag. Time & Date
Minimum magnitude displayed is 2.5.

Coastal Water Temperatures

Place Temperature

Stations

Nearby Weather Stations

Station Location Temp. Windchill Dew Point Humidity Wind Precip. Elev Updated Type